»·PEaware :: N15JG KSLC-U14

N15JG :: KSLC-U14

FLIGHT INFORMATION

Flight Status: Arrived
Operator: Privately registered:
United States
More flights under this callsign
Pilot: Anonymous 11047 (11047)
Aircraft: PIPER PA-28 CHEROKEE ARCHER
(PA28)
More flights by this aircraft type
Origin: KSLC Salt Lake City Intl
United States
Destination: U14 Nephi Mun
United States
More flights between these airports :: More routes between these airports
Route: +
File this flight plan on PilotEdge
Remarks:
Altitude:
(Current/Filed)
9,500ft
Speed:
(Current/Filed)
0kts
Departed: 14-May-17 08:07 AM
Arrived: 14-May-17 08:46 AM
Distance/Time
Traveled:
63nm/0:38
Distance/Time
To Go:
Arrived

Flight Plot

Page will automatically refresh every two minutes.

Flight plan parsing failed; only flown route is shown


Map Options




Map Legend


Flown Route
Filed Route
Departure Airport
Arrival Airport
Navaid (VOR, NDB)
Fix

Horizontal Profiles

Position Reports

Time Latitude Longitude Heading Altitude Ground
Speed
14-May-17 07:53 40.777169 -111.958933 178 4230ft 0kts
14-May-17 07:54 40.777169 -111.958933 178 4230ft 0kts
14-May-17 07:55 40.777169 -111.958933 178 4230ft 0kts
14-May-17 07:56 40.777169 -111.958933 178 4230ft 0kts
14-May-17 07:57 40.777169 -111.958933 178 4230ft 0kts
14-May-17 07:58 40.777164 -111.958932 178 4230ft 0kts
14-May-17 07:59 40.777534 -111.960625 358 4230ft 6kts
14-May-17 08:00 40.780321 -111.960006 0 4230ft 11kts
14-May-17 08:01 40.783751 -111.960012 359 4230ft 12kts
14-May-17 08:02 40.786003 -111.960598 308 4230ft 0kts
14-May-17 08:03 40.786669 -111.963161 255 4230ft 15kts
14-May-17 08:04 40.785540 -111.969317 256 4230ft 12kts
14-May-17 08:05 40.785467 -111.969753 256 4230ft 0kts
14-May-17 08:06 40.785467 -111.969752 256 4230ft 0kts
14-May-17 08:07 40.785467 -111.969752 256 4230ft 0kts
14-May-17 08:08 40.784259 -111.970252 153 4230ft 31kts
14-May-17 08:09 40.762466 -111.962082 191 4698ft 90kts
14-May-17 08:10 40.737289 -111.965802 190 5407ft 93kts
14-May-17 08:11 40.711621 -111.969811 190 6083ft 93kts
14-May-17 08:12 40.685639 -111.973398 193 6721ft 94kts
14-May-17 08:13 40.659190 -111.977188 192 7312ft 96kts
14-May-17 08:14 40.631369 -111.981451 187 7533ft 109kts
14-May-17 08:15 40.601344 -111.986513 191 7545ft 108kts
14-May-17 08:16 40.570934 -111.990481 189 7544ft 111kts
14-May-17 08:17 40.541926 -111.997138 189 7837ft 104kts
14-May-17 08:18 40.512584 -112.002600 186 8041ft 109kts
14-May-17 08:19 40.482249 -112.008271 190 8062ft 110kts
14-May-17 08:20 40.451749 -112.013997 192 8062ft 112kts
14-May-17 08:21 40.421154 -112.020497 187 8075ft 111kts
14-May-17 08:22 40.390386 -112.024785 193 8056ft 113kts
14-May-17 08:23 40.359345 -112.032336 193 8033ft 113kts
14-May-17 08:24 40.329068 -112.038473 190 8030ft 112kts
14-May-17 08:25 40.298102 -112.044810 191 8012ft 113kts
14-May-17 08:26 40.266912 -112.044843 157 7916ft 119kts
14-May-17 08:27 40.238971 -112.024275 149 7489ft 116kts
14-May-17 08:28 40.211891 -112.005038 154 7482ft 108kts
14-May-17 08:29 40.185876 -111.988271 153 7484ft 101kts
14-May-17 08:30 40.159462 -111.975576 162 7547ft 101kts
14-May-17 08:31 40.132772 -111.964531 159 7669ft 100kts
14-May-17 08:32 40.106513 -111.950695 154 7756ft 109kts
14-May-17 08:33 40.077963 -111.929738 143 7634ft 118kts
14-May-17 08:34 40.047827 -111.917919 182 7516ft 110kts
14-May-17 08:35 40.017891 -111.918085 179 7444ft 107kts
14-May-17 08:36 39.988642 -111.914938 174 7525ft 104kts
14-May-17 08:37 39.959755 -111.907314 167 7503ft 110kts
14-May-17 08:38 39.930866 -111.897098 163 7558ft 106kts
14-May-17 08:39 39.902414 -111.885329 165 7526ft 106kts
14-May-17 08:40 39.873917 -111.878022 176 7189ft 106kts
14-May-17 08:41 39.845280 -111.884981 196 6886ft 105kts
14-May-17 08:42 39.816780 -111.892694 189 6557ft 107kts
14-May-17 08:43 39.788235 -111.899187 188 6283ft 105kts
14-May-17 08:44 39.760761 -111.886415 166 6008ft 101kts
14-May-17 08:45 39.732654 -111.887556 183 6011ft 105kts
14-May-17 08:46 39.709412 -111.880796 91 5693ft 98kts
14-May-17 08:47 39.727020 -111.870045 359 5107ft 85kts
14-May-17 08:48 39.737712 -111.869002 89 5003ft 0kts
14-May-17 08:49 39.737713 -111.867723 91 5005ft 8kts

Navigation Log

Ident Type
Flight plan parsing failed, navigation log unavailable